Time;durP1;ratioP1;P1;durP2;ratioP2;P2;SDS_P1;SDS_P2;PMS_P1;PMS_P2;Temp;Humidity;BMP_temperature;BMP_pressure;BME280_temperature;BME280_humidity;BME280_pressure;Samples;Min_cycle;Max_cycle;Signal;HPM_P1;HPM_P2
2021/03/07 00:03:01;;;;;;;0.82;0.82;;;;;;;-1.16;53.96;97772.03;299396;236;64005;-57
2021/03/07 00:08:03;;;;;;;0.80;0.80;;;;;;;-1.13;54.28;97766.31;299397;199;63009;-57
2021/03/07 00:13:04;;;;;;;0.90;0.90;;;;;;;-1.24;55.15;97769.53;299396;372;63005;-55
2021/03/07 00:18:06;;;;;;;0.90;0.90;;;;;;;-1.26;55.04;97772.41;299396;203;63009;-60
2021/03/07 00:23:07;;;;;;;1.00;1.00;;;;;;;-1.44;55.64;97770.25;299396;196;63004;-57
2021/03/07 00:28:08;;;;;;;0.90;0.90;;;;;;;-1.57;55.92;97764.84;299395;288;64009;-54
2021/03/07 00:33:09;;;;;;;0.90;0.90;;;;;;;-1.56;55.32;97765.66;299395;336;64005;-55
2021/03/07 00:38:10;;;;;;;0.90;0.90;;;;;;;-1.49;55.87;97761.22;299396;207;63017;-58
2021/03/07 00:43:11;;;;;;;0.90;0.90;;;;;;;-1.52;56.14;97756.28;299396;214;63005;-58
2021/03/07 00:48:12;;;;;;;0.90;0.90;;;;;;;-1.52;56.95;97756.28;299395;313;64026;-54
2021/03/07 00:53:13;;;;;;;0.90;0.90;;;;;;;-1.37;55.65;97741.81;299396;206;63009;-57
2021/03/07 00:58:15;;;;;;;0.90;0.90;;;;;;;-1.18;56.46;97742.94;299397;212;63009;-58
2021/03/07 01:03:17;;;;;;;0.90;0.90;;;;;;;-1.20;55.79;97722.84;299397;203;63005;-58
2021/03/07 01:08:18;;;;;;;0.80;0.80;;;;;;;-1.16;56.53;97718.78;299394;386;63009;-58
2021/03/07 01:13:21;;;;;;;0.80;0.80;;;;;;;-1.14;56.61;97716.75;299395;332;63005;-58
2021/03/07 01:18:22;;;;;;;0.82;0.82;;;;;;;-1.19;56.50;97713.84;299395;410;63009;-59
2021/03/07 01:23:26;;;;;;;0.80;0.80;;;;;;;-1.38;56.48;97720.72;299395;213;63004;-58
2021/03/07 01:28:27;;;;;;;0.80;0.80;;;;;;;-1.51;56.39;97712.69;299417;196;63009;-58
2021/03/07 01:33:30;;;;;;;0.80;0.80;;;;;;;-1.58;56.21;97715.28;299373;208;63005;-58
2021/03/07 01:38:31;;;;;;;0.90;0.90;;;;;;;-1.64;57.39;97710.75;299395;220;63008;-54
2021/03/07 01:43:32;;;;;;;0.90;0.90;;;;;;;-1.51;55.93;97689.53;299395;221;63004;-59
2021/03/07 01:48:35;;;;;;;0.90;0.90;;;;;;;-1.81;57.30;97693.47;299395;197;63009;-53
2021/03/07 01:53:40;;;;;;;0.80;0.80;;;;;;;-1.82;57.71;97686.50;299395;215;63004;-58
2021/03/07 01:58:43;;;;;;;0.80;0.80;;;;;;;-1.69;55.51;97659.94;299395;275;63014;-58
2021/03/07 02:03:54;;;;;;;0.90;0.90;;;;;;;-1.58;57.04;97667.38;299395;225;63005;-57
2021/03/07 02:08:56;;;;;;;0.82;0.82;;;;;;;-1.47;56.47;97648.22;299395;296;63008;-58
2021/03/07 02:13:59;;;;;;;0.82;0.82;;;;;;;-1.24;54.57;97636.41;299395;203;63004;-58
2021/03/07 02:19:01;;;;;;;0.90;0.90;;;;;;;-1.20;54.17;97640.31;299395;225;63009;-57
2021/03/07 02:24:12;;;;;;;0.85;0.85;;;;;;;-1.07;53.96;97625.19;299395;201;63004;-59
2021/03/07 02:29:15;;;;;;;0.90;0.90;;;;;;;-0.98;53.44;97617.81;299395;219;63009;-58
2021/03/07 02:34:30;;;;;;;0.80;0.80;;;;;;;-0.96;52.96;97618.44;299395;214;63005;-56
2021/03/07 02:39:34;;;;;;;0.80;0.80;;;;;;;-0.90;52.31;97609.66;299417;227;63009;-57
2021/03/07 02:44:37;;;;;;;0.90;0.90;;;;;;;-0.89;52.20;97591.81;299417;222;63004;-58
2021/03/07 02:49:39;;;;;;;0.80;0.80;;;;;;;-0.91;52.08;97578.69;299395;212;63009;-53
2021/03/07 02:54:42;;;;;;;0.80;0.80;;;;;;;-0.98;52.18;97577.03;299395;281;63005;-58
2021/03/07 02:59:46;;;;;;;0.90;0.90;;;;;;;-1.05;52.52;97567.22;299395;218;63009;-57
2021/03/07 03:04:48;;;;;;;0.98;0.98;;;;;;;-1.09;52.78;97570.50;299395;370;63005;-59
2021/03/07 03:09:51;;;;;;;0.80;0.80;;;;;;;-1.17;53.08;97562.69;299395;236;63009;-58
2021/03/07 03:14:52;;;;;;;0.90;0.90;;;;;;;-1.16;52.95;97567.00;299395;213;63004;-54
2021/03/07 03:19:55;;;;;;;0.90;0.90;;;;;;;-1.20;52.99;97563.91;299395;237;63009;-58
2021/03/07 03:24:56;;;;;;;0.90;0.90;;;;;;;-1.15;52.58;97557.97;299395;202;63013;-57
2021/03/07 03:29:59;;;;;;;0.90;0.90;;;;;;;-1.22;52.66;97551.81;299395;220;63008;-57
2021/03/07 03:34:59;;;;;;;0.80;0.80;;;;;;;-1.20;52.60;97558.59;299395;222;63004;-57
2021/03/07 03:40:02;;;;;;;0.90;0.90;;;;;;;-1.23;53.04;97559.00;299395;227;63009;-57
2021/03/07 03:45:06;;;;;;;0.90;0.90;;;;;;;-1.23;52.80;97558.16;299395;366;63004;-58
2021/03/07 03:50:10;;;;;;;0.90;0.90;;;;;;;-1.25;52.81;97554.87;299395;210;63009;-58
2021/03/07 03:55:19;;;;;;;0.80;0.80;;;;;;;-1.38;53.14;97545.00;299417;378;63005;-57
2021/03/07 04:00:26;;;;;;;0.90;0.90;;;;;;;-1.50;53.85;97542.13;299395;248;63008;-58
2021/03/07 04:05:30;;;;;;;0.90;0.90;;;;;;;-1.55;54.00;97538.44;299395;345;63004;-57
2021/03/07 04:10:31;;;;;;;0.90;0.90;;;;;;;-1.67;54.36;97540.84;299417;196;63009;-58
2021/03/07 04:15:32;;;;;;;0.85;0.85;;;;;;;-1.70;54.83;97541.25;299395;509;63004;-58
2021/03/07 04:20:34;;;;;;;0.80;0.80;;;;;;;-1.61;54.73;97540.06;299395;225;63009;-57
2021/03/07 04:25:36;;;;;;;0.90;0.90;;;;;;;-1.59;54.40;97535.34;299395;202;63005;-58
2021/03/07 04:30:38;;;;;;;0.88;0.88;;;;;;;-1.57;54.69;97528.00;299395;339;63008;-58
2021/03/07 04:35:40;;;;;;;0.90;0.90;;;;;;;-1.57;54.67;97533.31;299395;208;63004;-57
2021/03/07 04:40:42;;;;;;;0.90;0.90;;;;;;;-1.49;54.45;97525.16;299395;220;63020;-58
2021/03/07 04:45:43;;;;;;;0.90;0.90;;;;;;;-1.52;54.56;97530.06;299395;218;63005;-54
2021/03/07 04:50:44;;;;;;;0.90;0.90;;;;;;;-1.55;54.66;97523.28;299395;222;63009;-58
2021/03/07 04:55:45;;;;;;;0.90;0.90;;;;;;;-1.70;55.59;97531.41;299395;367;63000;-57
2021/03/07 05:00:46;;;;;;;0.90;0.90;;;;;;;-1.68;55.35;97523.25;299395;215;63009;-54
2021/03/07 05:05:49;;;;;;;0.90;0.90;;;;;;;-1.65;55.06;97517.53;299395;232;63019;-58
2021/03/07 05:10:53;;;;;;;0.90;0.90;;;;;;;-1.73;55.49;97521.16;299417;219;63009;-55
2021/03/07 05:15:53;;;;;;;0.80;0.80;;;;;;;-1.75;55.80;97511.78;299395;312;63005;-57
2021/03/07 05:20:54;;;;;;;0.90;0.90;;;;;;;-1.84;56.45;97518.28;299395;207;63009;-58
2021/03/07 05:25:59;;;;;;;0.80;0.80;;;;;;;-1.85;56.36;97506.00;299395;400;63005;-59
2021/03/07 05:31:00;;;;;;;0.90;0.90;;;;;;;-1.77;56.10;97503.19;299417;214;63009;-58
2021/03/07 05:36:01;;;;;;;0.90;0.90;;;;;;;-1.86;56.46;97493.72;299395;211;63004;-59
2021/03/07 05:41:01;;;;;;;0.90;0.90;;;;;;;-1.88;57.02;97485.94;299395;321;63009;-59
2021/03/07 05:46:02;;;;;;;0.90;0.90;;;;;;;-1.84;56.97;97491.69;299395;225;63005;-59
2021/03/07 05:51:04;;;;;;;0.90;0.90;;;;;;;-2.02;58.37;97501.03;299395;196;63009;-60
2021/03/07 05:56:05;;;;;;;0.90;0.90;;;;;;;-2.16;59.19;97502.00;299395;217;63005;-60
2021/03/07 06:01:10;;;;;;;0.82;0.82;;;;;;;-2.24;59.85;97502.16;299395;207;63009;-60
2021/03/07 06:06:11;;;;;;;0.90;0.90;;;;;;;-2.35;60.03;97500.03;299417;450;63004;-60
2021/03/07 06:11:32;;;;;;;0.90;0.90;;;;;;;-2.21;59.74;97477.84;299395;249;63009;-60
2021/03/07 06:16:33;;;;;;;0.90;0.90;;;;;;;-2.16;59.59;97479.91;299395;402;63005;-59
2021/03/07 06:21:35;;;;;;;1.00;1.00;;;;;;;-2.02;58.48;97474.44;299395;210;63008;-60
2021/03/07 06:26:36;;;;;;;0.80;0.80;;;;;;;-1.98;58.44;97468.72;299395;213;63004;-59
2021/03/07 06:31:39;;;;;;;0.90;0.90;;;;;;;-2.10;59.29;97471.16;299394;224;64013;-59
2021/03/07 06:36:40;;;;;;;0.95;0.95;;;;;;;-2.06;59.24;97472.34;299395;225;63004;-59
2021/03/07 06:41:41;;;;;;;0.85;0.85;;;;;;;-1.96;58.99;97461.34;299395;311;63009;-59
2021/03/07 06:46:47;;;;;;;0.80;0.80;;;;;;;-1.91;58.93;97469.56;299395;395;63005;-60
2021/03/07 06:51:48;;;;;;;0.80;0.80;;;;;;;-1.90;59.88;97472.03;299395;225;63008;-59
2021/03/07 06:56:50;;;;;;;0.80;0.80;;;;;;;-1.79;60.00;97467.97;299395;275;63004;-59
2021/03/07 07:01:56;;;;;;;0.90;0.90;;;;;;;-1.60;59.45;97467.19;299395;204;63018;-60
2021/03/07 07:07:05;;;;;;;0.85;0.85;;;;;;;-1.44;59.50;97466.00;299395;222;63004;-60
2021/03/07 07:12:18;;;;;;;0.90;0.90;;;;;;;-1.24;59.62;97466.00;299395;370;63009;-59
2021/03/07 07:17:20;;;;;;;0.80;0.80;;;;;;;-1.02;58.03;97462.09;299395;217;63005;-60
2021/03/07 07:22:21;;;;;;;0.90;0.90;;;;;;;-0.81;58.11;97458.41;299395;386;63009;-60
2021/03/07 07:27:22;;;;;;;0.80;0.80;;;;;;;-0.73;58.41;97448.34;299395;221;63004;-60
2021/03/07 07:32:39;;;;;;;0.80;0.80;;;;;;;-0.62;58.10;97449.53;299395;329;63009;-60
2021/03/07 07:37:54;;;;;;;0.80;0.80;;;;;;;-0.46;58.48;97453.63;299395;220;63005;-59
2021/03/07 07:43:03;;;;;;;0.80;0.80;;;;;;;-0.33;58.14;97458.91;299395;198;63009;-59
2021/03/07 07:48:05;;;;;;;0.90;0.90;;;;;;;-0.14;58.42;97463.37;299395;303;63005;-59
2021/03/07 07:53:35;;;;;;;0.80;0.80;;;;;;;0.15;57.76;97456.66;299395;226;63009;-59
2021/03/07 07:58:56;;;;;;;0.80;0.80;;;;;;;0.47;57.21;97459.38;299395;202;63004;-59
2021/03/07 08:03:57;;;;;;;0.80;0.80;;;;;;;0.91;55.51;97450.44;299395;223;63018;-59
2021/03/07 08:08:58;;;;;;;0.80;0.80;;;;;;;1.14;54.85;97439.94;299395;204;63005;-59
2021/03/07 08:14:00;;;;;;;0.80;0.80;;;;;;;1.38;54.78;97437.47;299395;232;63008;-59
2021/03/07 08:19:01;;;;;;;0.80;0.80;;;;;;;1.61;54.11;97437.63;299395;282;63004;-58
2021/03/07 08:24:08;;;;;;;1.12;1.12;;;;;;;1.94;54.07;97432.72;299395;203;63018;-58
2021/03/07 08:29:48;;;;;;;0.77;0.77;;;;;;;2.15;52.73;97431.41;299395;324;63004;-58
2021/03/07 08:34:49;;;;;;;0.80;0.80;;;;;;;2.51;52.14;97422.47;299395;239;63009;-58
2021/03/07 08:40:31;;;;;;;0.80;0.80;;;;;;;2.46;51.78;97414.28;299395;211;63005;-58
2021/03/07 08:45:35;;;;;;;0.80;0.80;;;;;;;2.84;50.47;97407.72;299395;256;63009;-57
2021/03/07 08:50:36;;;;;;;0.80;0.80;;;;;;;2.64;52.20;97411.56;299395;306;63004;-57
2021/03/07 08:55:43;;;;;;;0.80;0.80;;;;;;;2.36;53.41;97416.72;299395;231;63009;-57
2021/03/07 09:00:46;;;;;;;0.80;0.80;;;;;;;2.57;52.93;97401.97;299395;230;63005;-57
2021/03/07 09:05:48;;;;;;;0.80;0.80;;;;;;;2.52;54.19;97410.69;299395;196;63008;-57
2021/03/07 09:10:53;;;;;;;0.80;0.80;;;;;;;2.52;54.60;97409.87;299395;238;63004;-57
2021/03/07 09:15:56;;;;;;;0.80;0.80;;;;;;;2.65;53.30;97401.66;299417;202;63009;-54
2021/03/07 09:21:02;;;;;;;0.70;0.70;;;;;;;2.74;55.29;97402.16;299394;232;63008;-54
2021/03/07 09:26:12;;;;;;;0.70;0.70;;;;;;;2.79;54.57;97399.56;299395;219;63021;-52
2021/03/07 09:31:18;;;;;;;0.70;0.70;;;;;;;3.19;53.73;97389.81;299395;214;63005;-52
2021/03/07 09:36:21;;;;;;;0.70;0.70;;;;;;;3.46;52.92;97378.59;299395;198;63008;-54
2021/03/07 09:41:36;;;;;;;0.70;0.70;;;;;;;3.80;51.89;97369.66;299395;210;63004;-52
2021/03/07 09:46:38;;;;;;;;;;;;;;;4.13;50.48;97368.16;299996;982;6005;-51
2021/03/07 09:51:42;;;;;;;0.70;0.70;;;;;;;4.34;49.46;97370.13;299400;202;63009;-52
2021/03/07 09:56:47;;;;;;;0.70;0.70;;;;;;;4.57;48.69;97359.25;299395;261;63004;-55
2021/03/07 10:01:51;;;;;;;0.70;0.70;;;;;;;4.97;47.88;97342.97;299395;204;63009;-53
2021/03/07 10:06:53;;;;;;;0.70;0.70;;;;;;;5.07;47.68;97336.94;299395;315;63005;-54
2021/03/07 10:12:03;;;;;;;0.70;0.70;;;;;;;4.96;47.57;97332.44;299395;258;63009;-56
2021/03/07 10:17:05;;;;;;;0.70;0.70;;;;;;;4.49;48.30;97332.00;299395;266;63005;-55
2021/03/07 10:22:06;;;;;;;0.70;0.70;;;;;;;4.58;48.48;97339.38;299395;204;63009;-53
2021/03/07 10:27:09;;;;;;;0.70;0.70;;;;;;;4.90;48.00;97325.37;299395;216;63004;-55
2021/03/07 10:32:22;;;;;;;1.73;1.67;;;;;;;4.96;47.37;97319.00;299395;214;63009;-54
2021/03/07 10:37:55;;;;;;;0.80;0.80;;;;;;;5.18;46.09;97317.19;299395;242;63005;-54
2021/03/07 10:43:01;;;;;;;0.70;0.70;;;;;;;5.08;46.60;97316.22;299395;220;63008;-57
2021/03/07 10:48:07;;;;;;;0.70;0.70;;;;;;;5.16;47.50;97316.63;299395;210;63004;-54
2021/03/07 10:53:09;;;;;;;0.70;0.70;;;;;;;5.28;46.57;97314.62;299395;220;63009;-55
2021/03/07 10:58:10;;;;;;;0.70;0.70;;;;;;;5.22;46.60;97312.91;299395;263;63004;-55
2021/03/07 11:03:11;;;;;;;0.70;0.70;;;;;;;4.83;47.58;97319.38;299395;218;63022;-57
2021/03/07 11:08:13;;;;;;;0.70;0.70;;;;;;;4.71;47.53;97317.56;299395;225;63005;-52
2021/03/07 11:13:14;;;;;;;0.70;0.70;;;;;;;4.40;48.27;97320.81;299395;211;63009;-53
2021/03/07 11:18:15;;;;;;;0.70;0.70;;;;;;;4.49;48.87;97330.12;299395;208;63004;-54
2021/03/07 11:23:17;;;;;;;0.70;0.70;;;;;;;4.96;47.15;97319.00;299395;240;63009;-53
2021/03/07 11:28:18;;;;;;;0.70;0.70;;;;;;;5.02;47.57;97315.34;299395;260;63005;-54
2021/03/07 11:33:19;;;;;;;1.73;1.30;;;;;;;5.16;47.08;97302.37;299395;214;63009;-54
2021/03/07 11:38:20;;;;;;;0.70;0.70;;;;;;;5.16;46.58;97300.50;299395;219;63005;-55
2021/03/07 11:43:21;;;;;;;0.70;0.70;;;;;;;5.19;47.08;97286.53;299395;227;63009;-54
2021/03/07 11:48:23;;;;;;;0.70;0.70;;;;;;;5.27;47.03;97280.72;299395;218;63004;-53
2021/03/07 11:53:24;;;;;;;0.70;0.70;;;;;;;5.44;46.76;97277.97;299396;296;63009;-53
2021/03/07 11:58:25;;;;;;;0.60;0.60;;;;;;;5.57;46.46;97271.38;299396;218;63005;-54
2021/03/07 12:03:26;;;;;;;0.70;0.70;;;;;;;5.67;46.42;97261.53;299396;307;63004;-64
2021/03/07 12:08:28;;;;;;;0.70;0.70;;;;;;;5.70;46.65;97258.34;299396;313;63005;-54
2021/03/07 12:13:29;;;;;;;0.70;0.70;;;;;;;5.86;46.16;97248.56;299395;222;64014;-54
2021/03/07 12:18:35;;;;;;;0.60;0.60;;;;;;;5.97;44.54;97227.94;299396;215;63004;-53
2021/03/07 12:23:36;;;;;;;0.70;0.70;;;;;;;6.19;44.14;97231.41;299396;204;63009;-55
2021/03/07 12:28:37;;;;;;;0.75;0.75;;;;;;;6.12;43.22;97224.59;299396;202;63005;-57
2021/03/07 12:33:39;;;;;;;0.70;0.70;;;;;;;6.02;44.22;97217.22;299396;264;63009;-54
2021/03/07 12:38:40;;;;;;;0.80;0.80;;;;;;;6.02;43.98;97209.97;299397;263;63005;-55
2021/03/07 12:43:41;;;;;;;0.68;0.68;;;;;;;6.13;43.97;97210.06;299397;216;63009;-56
2021/03/07 12:48:42;;;;;;;1.00;1.00;;;;;;;6.31;43.45;97197.00;299397;306;63004;-54
2021/03/07 12:53:43;;;;;;;0.68;0.68;;;;;;;6.25;43.36;97197.19;299396;317;63009;-56
2021/03/07 12:58:44;;;;;;;0.85;0.85;;;;;;;6.31;42.75;97193.47;299396;225;63005;-55
2021/03/07 13:03:45;;;;;;;1.15;1.15;;;;;;;6.36;44.20;97188.94;299396;231;63020;-56
2021/03/07 13:08:46;;;;;;;0.93;0.93;;;;;;;6.24;44.08;97182.09;299396;345;63004;-55
2021/03/07 13:13:47;;;;;;;6.47;6.05;;;;;;;6.42;42.99;97176.31;299396;259;63009;-59
2021/03/07 13:18:48;;;;;;;0.80;0.80;;;;;;;6.41;44.40;97168.50;299396;267;63004;-54
2021/03/07 13:23:49;;;;;;;0.85;0.85;;;;;;;6.62;44.72;97170.22;299396;360;63009;-55
2021/03/07 13:28:50;;;;;;;0.70;0.70;;;;;;;6.57;43.67;97152.16;299397;209;63005;-57
2021/03/07 13:33:51;;;;;;;0.70;0.70;;;;;;;6.70;43.82;97146.28;299397;269;63008;-57
2021/03/07 13:38:52;;;;;;;0.70;0.70;;;;;;;6.73;43.71;97139.56;299395;349;63004;-58
2021/03/07 13:43:54;;;;;;;0.70;0.70;;;;;;;6.64;42.82;97131.16;299395;214;63009;-58
2021/03/07 13:48:55;;;;;;;1.05;1.05;;;;;;;6.51;42.64;97128.94;299395;235;63004;-58
2021/03/07 13:53:56;;;;;;;0.70;0.70;;;;;;;6.42;44.22;97133.19;299395;314;63009;-57
2021/03/07 13:58:57;;;;;;;0.93;0.93;;;;;;;6.75;42.55;97115.03;299395;210;63005;-54
2021/03/07 14:03:58;;;;;;;0.60;0.60;;;;;;;6.87;42.66;97107.53;299395;226;63022;-56
2021/03/07 14:08:59;;;;;;;0.60;0.60;;;;;;;6.84;42.36;97108.06;299395;286;63004;-57
2021/03/07 14:14:00;;;;;;;0.70;0.70;;;;;;;6.85;41.61;97104.31;299395;323;63009;-56
2021/03/07 14:19:01;;;;;;;0.70;0.70;;;;;;;6.85;42.66;97098.91;299395;204;63004;-60
2021/03/07 14:24:03;;;;;;;0.70;0.70;;;;;;;6.99;42.19;97097.31;299395;347;63009;-60
2021/03/07 14:29:05;;;;;;;0.60;0.60;;;;;;;6.88;43.13;97101.06;299395;325;63005;-57
2021/03/07 14:34:06;;;;;;;0.60;0.60;;;;;;;6.96;43.24;97098.66;299395;207;63008;-57
2021/03/07 14:39:07;;;;;;;0.60;0.60;;;;;;;7.13;42.17;97084.97;299395;332;63004;-56
2021/03/07 14:44:09;;;;;;;0.60;0.60;;;;;;;7.02;42.88;97091.41;299395;234;63009;-55
2021/03/07 14:49:10;;;;;;;0.60;0.60;;;;;;;6.98;42.77;97082.22;299395;275;63005;-59
2021/03/07 14:54:11;;;;;;;0.60;0.60;;;;;;;7.07;43.10;97080.63;299395;228;63009;-59
2021/03/07 14:59:12;;;;;;;0.70;0.70;;;;;;;7.10;42.47;97069.31;299395;221;63005;-59
2021/03/07 15:04:13;;;;;;;0.60;0.60;;;;;;;7.01;42.91;97070.88;299395;206;63008;-57
2021/03/07 15:09:15;;;;;;;0.70;0.70;;;;;;;7.15;41.78;97063.94;299395;215;63004;-56
2021/03/07 15:14:16;;;;;;;0.60;0.60;;;;;;;7.21;40.73;97045.84;299395;205;63009;-58
2021/03/07 15:19:16;;;;;;;0.60;0.60;;;;;;;7.01;40.93;97046.59;299395;219;63005;-56
2021/03/07 15:24:18;;;;;;;9.98;9.45;;;;;;;7.02;41.07;97040.94;299390;203;65009;-57
2021/03/07 15:29:19;;;;;;;0.65;0.65;;;;;;;7.14;40.61;97038.00;299395;260;63005;-55
2021/03/07 15:34:20;;;;;;;0.60;0.60;;;;;;;7.25;40.58;97028.06;299395;203;63009;-54
2021/03/07 15:39:21;;;;;;;0.60;0.60;;;;;;;7.22;41.61;97032.09;299395;212;63004;-57
2021/03/07 15:44:22;;;;;;;0.60;0.60;;;;;;;7.39;40.81;97013.75;299395;270;63009;-58
2021/03/07 15:49:24;;;;;;;0.70;0.70;;;;;;;7.32;40.42;97013.19;299395;199;63005;-59
2021/03/07 15:54:25;;;;;;;0.60;0.60;;;;;;;6.99;42.02;97011.00;299395;215;63009;-54
2021/03/07 15:59:26;;;;;;;16.30;7.05;;;;;;;7.17;40.89;96999.72;299392;237;64000;-55
2021/03/07 16:04:27;;;;;;;0.60;0.60;;;;;;;7.20;41.86;97004.56;299395;297;63009;-58
2021/03/07 16:09:28;;;;;;;0.60;0.60;;;;;;;7.30;40.12;96988.34;299395;222;63004;-59
2021/03/07 16:14:29;;;;;;;0.60;0.60;;;;;;;6.97;41.11;96999.66;299395;202;63009;-60
2021/03/07 16:19:29;;;;;;;0.60;0.60;;;;;;;6.90;41.88;96994.53;299395;199;63005;-59
2021/03/07 16:24:30;;;;;;;0.70;0.70;;;;;;;6.67;42.98;96990.41;299395;246;63009;-59
2021/03/07 16:29:31;;;;;;;0.60;0.60;;;;;;;6.43;43.81;97001.94;299395;340;63005;-55
2021/03/07 16:34:32;;;;;;;0.70;0.70;;;;;;;6.33;43.22;97008.09;299395;231;63009;-59
2021/03/07 16:39:35;;;;;;;0.60;0.60;;;;;;;6.23;42.80;97005.37;299395;261;63004;-59
2021/03/07 16:44:36;;;;;;;2.33;2.28;;;;;;;5.95;43.78;97010.03;299395;196;63009;-57
2021/03/07 16:49:37;;;;;;;0.60;0.60;;;;;;;5.85;43.92;97011.84;299395;294;63005;-58
2021/03/07 16:54:38;;;;;;;0.60;0.60;;;;;;;5.68;44.81;97014.69;299395;252;63009;-57
2021/03/07 16:59:39;;;;;;;0.70;0.70;;;;;;;5.58;45.12;97014.59;299395;208;63005;-55
2021/03/07 17:04:40;;;;;;;0.70;0.70;;;;;;;5.25;46.36;97011.09;299395;207;63009;-55
2021/03/07 17:09:42;;;;;;;0.70;0.70;;;;;;;4.90;47.71;97025.03;299395;291;63004;-55
2021/03/07 17:14:44;;;;;;;0.70;0.70;;;;;;;4.56;49.67;97027.06;299395;212;63009;-56
2021/03/07 17:19:48;;;;;;;1.17;1.17;;;;;;;4.29;50.80;97042.31;299395;210;63005;-55
2021/03/07 17:24:49;;;;;;;2.27;2.20;;;;;;;4.16;51.25;97045.41;299417;255;63008;-56
2021/03/07 17:29:50;;;;;;;0.70;0.70;;;;;;;4.14;51.11;97047.50;299395;294;63004;-58
2021/03/07 17:34:51;;;;;;;0.70;0.70;;;;;;;3.97;52.60;97050.22;299395;210;63020;-53
2021/03/07 17:39:54;;;;;;;0.70;0.70;;;;;;;3.71;53.06;97059.78;299395;224;63004;-57
2021/03/07 17:44:56;;;;;;;0.70;0.70;;;;;;;3.67;52.75;97059.44;299395;232;63009;-57
2021/03/07 17:49:57;;;;;;;0.70;0.70;;;;;;;3.66;53.43;97073.09;299395;224;63005;-55
2021/03/07 17:54:59;;;;;;;0.70;0.70;;;;;;;3.67;53.89;97077.41;299395;210;63008;-57
2021/03/07 18:00:00;;;;;;;0.70;0.70;;;;;;;3.50;54.52;97084.63;299395;254;63004;-56
2021/03/07 18:05:02;;;;;;;0.70;0.70;;;;;;;3.45;54.48;97087.25;299395;226;63009;-57
2021/03/07 18:10:04;;;;;;;0.70;0.70;;;;;;;3.35;55.28;97091.38;299395;264;63004;-57
2021/03/07 18:15:06;;;;;;;0.70;0.70;;;;;;;3.25;56.36;97099.25;299395;196;63009;-57
2021/03/07 18:20:10;;;;;;;0.60;0.60;;;;;;;3.08;56.86;97109.12;299395;233;63005;-56
2021/03/07 18:25:11;;;;;;;0.70;0.70;;;;;;;3.03;56.74;97106.34;299395;219;63008;-57
2021/03/07 18:30:14;;;;;;;0.70;0.70;;;;;;;2.96;57.67;97111.03;299395;223;63004;-59
2021/03/07 18:35:15;;;;;;;0.70;0.70;;;;;;;2.95;57.79;97117.44;299395;218;63009;-57
2021/03/07 18:40:18;;;;;;;0.70;0.70;;;;;;;2.92;57.99;97108.00;299395;214;63005;-58
2021/03/07 18:45:19;;;;;;;0.70;0.70;;;;;;;2.87;58.59;97107.09;299395;226;63009;-61
2021/03/07 18:50:20;;;;;;;0.70;0.70;;;;;;;2.78;58.62;97108.53;299395;202;63005;-55
2021/03/07 18:55:24;;;;;;;0.70;0.70;;;;;;;2.71;58.55;97108.69;299395;239;63009;-61
2021/03/07 19:00:25;;;;;;;0.70;0.70;;;;;;;2.67;58.72;97102.16;299417;208;63004;-55
2021/03/07 19:05:26;;;;;;;0.70;0.70;;;;;;;2.48;59.88;97108.72;299395;257;63009;-60
2021/03/07 19:10:28;;;;;;;0.70;0.70;;;;;;;2.43;60.21;97111.28;299395;198;63005;-62
2021/03/07 19:15:32;;;;;;;0.70;0.70;;;;;;;2.34;60.35;97118.88;299395;226;63009;-61
2021/03/07 19:20:33;;;;;;;0.70;0.70;;;;;;;2.25;60.07;97114.94;299417;221;63005;-54
2021/03/07 19:25:34;;;;;;;0.70;0.70;;;;;;;2.18;60.76;97120.41;299395;266;63018;-60
2021/03/07 19:30:36;;;;;;;0.70;0.70;;;;;;;2.09;60.93;97116.44;299395;259;63004;-60
2021/03/07 19:35:37;;;;;;;0.70;0.70;;;;;;;1.98;61.46;97126.13;299395;224;63009;-59
2021/03/07 19:40:38;;;;;;;0.70;0.70;;;;;;;1.82;61.68;97120.63;299395;204;63016;-59
2021/03/07 19:45:40;;;;;;;0.70;0.70;;;;;;;1.71;62.36;97124.94;299395;204;63009;-60
2021/03/07 19:50:41;;;;;;;0.73;0.73;;;;;;;1.75;62.37;97120.72;299395;241;63004;-55
2021/03/07 19:55:42;;;;;;;0.70;0.70;;;;;;;1.79;62.17;97127.25;299395;197;63009;-54
2021/03/07 20:00:44;;;;;;;0.70;0.70;;;;;;;1.82;61.97;97125.97;299395;215;63004;-54
2021/03/07 20:05:46;;;;;;;0.70;0.70;;;;;;;1.76;62.19;97127.72;299395;272;63009;-55
2021/03/07 20:10:48;;;;;;;0.70;0.70;;;;;;;1.58;62.12;97135.84;299395;205;63005;-57
2021/03/07 20:15:49;;;;;;;1.45;1.45;;;;;;;1.63;62.39;97133.31;299395;218;63008;-58
2021/03/07 20:20:50;;;;;;;0.80;0.80;;;;;;;1.62;62.26;97127.13;299395;229;63011;-55
2021/03/07 20:25:51;;;;;;;0.70;0.70;;;;;;;1.64;62.77;97129.59;299395;197;63009;-58
2021/03/07 20:30:53;;;;;;;0.70;0.70;;;;;;;1.65;62.76;97128.53;299395;191;63004;-54
2021/03/07 20:35:54;;;;;;;0.70;0.70;;;;;;;1.65;62.40;97125.88;299395;248;63009;-55
2021/03/07 20:40:55;;;;;;;0.70;0.70;;;;;;;1.62;62.03;97124.47;299395;206;63005;-56
2021/03/07 20:45:56;;;;;;;0.70;0.70;;;;;;;1.58;62.09;97125.16;299395;196;63008;-56
2021/03/07 20:50:57;;;;;;;0.70;0.70;;;;;;;1.49;62.34;97130.00;299394;242;64009;-58
2021/03/07 20:55:58;;;;;;;0.70;0.70;;;;;;;1.46;62.24;97132.31;299395;203;63009;-55
2021/03/07 21:00:59;;;;;;;0.80;0.80;;;;;;;1.40;62.12;97133.22;299395;201;63004;-55
2021/03/07 21:06:00;;;;;;;0.80;0.80;;;;;;;1.31;62.81;97136.25;299395;256;63009;-58
2021/03/07 21:11:02;;;;;;;0.80;0.80;;;;;;;1.28;62.68;97139.38;299395;275;63005;-58
2021/03/07 21:16:04;;;;;;;0.80;0.80;;;;;;;1.30;62.85;97139.16;299395;204;63022;-54
2021/03/07 21:21:05;;;;;;;0.80;0.80;;;;;;;1.29;62.60;97138.34;299395;296;63004;-58
2021/03/07 21:26:06;;;;;;;0.70;0.70;;;;;;;1.27;62.83;97140.41;299395;210;63009;-54
2021/03/07 21:31:07;;;;;;;0.70;0.70;;;;;;;1.30;62.54;97137.28;299395;293;63004;-57
2021/03/07 21:36:08;;;;;;;0.80;0.80;;;;;;;1.30;62.45;97144.50;299395;253;63009;-58
2021/03/07 21:41:10;;;;;;;0.80;0.80;;;;;;;1.31;61.93;97140.78;299395;266;63005;-58
2021/03/07 21:46:10;;;;;;;0.70;0.70;;;;;;;1.29;61.80;97137.53;299395;218;63008;-58
2021/03/07 21:51:11;;;;;;;0.70;0.70;;;;;;;1.29;61.50;97137.53;299395;229;63004;-58
2021/03/07 21:56:12;;;;;;;0.70;0.70;;;;;;;1.25;61.76;97137.16;299395;218;63009;-54
2021/03/07 22:01:13;;;;;;;0.70;0.70;;;;;;;1.25;60.83;97137.16;299395;291;63004;-59
2021/03/07 22:06:14;;;;;;;0.80;0.80;;;;;;;1.20;60.34;97134.34;299395;327;63009;-56
2021/03/07 22:11:15;;;;;;;0.80;0.80;;;;;;;1.18;60.13;97136.44;299395;203;63005;-59
2021/03/07 22:16:16;;;;;;;0.70;0.70;;;;;;;1.18;59.77;97133.75;299395;225;63008;-58
2021/03/07 22:21:17;;;;;;;0.80;0.80;;;;;;;1.15;59.51;97128.06;299395;326;63004;-58
2021/03/07 22:26:18;;;;;;;0.80;0.80;;;;;;;1.19;58.60;97124.69;299395;208;63009;-59
2021/03/07 22:31:19;;;;;;;0.80;0.80;;;;;;;1.11;58.48;97130.34;299395;231;63010;-59
2021/03/07 22:36:22;;;;;;;0.80;0.80;;;;;;;1.07;58.66;97131.84;299395;212;63009;-55
2021/03/07 22:41:24;;;;;;;0.80;0.80;;;;;;;1.05;57.82;97130.44;299395;227;63005;-58
2021/03/07 22:46:25;;;;;;;0.80;0.80;;;;;;;1.01;57.63;97124.75;299395;225;63009;-57
2021/03/07 22:51:27;;;;;;;0.70;0.70;;;;;;;1.02;57.02;97114.88;299395;231;63004;-60
2021/03/07 22:56:28;;;;;;;0.70;0.70;;;;;;;0.97;56.94;97111.03;299395;235;63009;-60
2021/03/07 23:01:29;;;;;;;0.70;0.70;;;;;;;0.96;56.94;97104.06;299395;295;63005;-60
2021/03/07 23:06:30;;;;;;;0.80;0.80;;;;;;;0.94;57.08;97105.34;299395;322;63009;-59
2021/03/07 23:11:31;;;;;;;0.80;0.80;;;;;;;0.93;56.30;97096.50;299395;280;63011;-59
2021/03/07 23:16:32;;;;;;;0.80;0.80;;;;;;;0.93;56.25;97107.19;299395;217;63027;-59
2021/03/07 23:21:34;;;;;;;0.80;0.80;;;;;;;0.89;56.25;97105.19;299395;227;63004;-58
2021/03/07 23:26:38;;;;;;;0.70;0.70;;;;;;;0.83;56.50;97106.09;299395;229;63009;-59
2021/03/07 23:31:39;;;;;;;0.80;0.80;;;;;;;0.75;56.80;97101.88;299417;399;63005;-58
2021/03/07 23:36:41;;;;;;;0.70;0.70;;;;;;;0.71;56.45;97102.53;299395;218;63009;-59
2021/03/07 23:41:42;;;;;;;0.80;0.80;;;;;;;0.71;56.21;97094.53;299395;216;63005;-58
2021/03/07 23:46:43;;;;;;;0.80;0.80;;;;;;;0.66;56.14;97085.38;299395;202;63009;-58
2021/03/07 23:51:44;;;;;;;0.70;0.70;;;;;;;0.70;55.41;97100.91;299395;214;63004;-58
2021/03/07 23:56:45;;;;;;;0.80;0.80;;;;;;;0.64;55.62;97087.44;299395;199;63009;-58
